createdAt,value
2023-02-27T00:01:49.290Z,2.04
2023-02-27T00:06:51.073Z,1.93
2023-02-27T00:11:57.735Z,1.81
2023-02-27T00:17:04.094Z,1.70
2023-02-27T00:22:05.838Z,1.60
2023-02-27T00:27:07.554Z,1.55
2023-02-27T00:32:09.253Z,1.50
2023-02-27T00:37:13.218Z,1.48
2023-02-27T00:42:15.012Z,1.49
2023-02-27T00:47:16.746Z,1.66
2023-02-27T00:52:18.632Z,1.78
2023-02-27T00:57:20.562Z,1.86
2023-02-27T01:02:22.531Z,1.93
2023-02-27T01:07:24.605Z,2.06
2023-02-27T01:12:26.370Z,2.20
2023-02-27T01:17:28.057Z,2.27
2023-02-27T01:22:29.729Z,2.30
2023-02-27T01:27:31.589Z,2.37
2023-02-27T01:32:33.520Z,2.40
2023-02-27T01:37:35.496Z,2.46
2023-02-27T01:42:37.234Z,2.51
2023-02-27T01:47:48.310Z,2.52
2023-02-27T01:52:56.205Z,2.41
2023-02-27T01:57:58.236Z,2.50
2023-02-27T02:03:08.268Z,2.57
2023-02-27T02:08:13.970Z,2.58
2023-02-27T02:13:15.744Z,2.56
2023-02-27T02:18:17.332Z,2.54
2023-02-27T02:23:21.808Z,2.54
2023-02-27T02:28:52.932Z,2.53
2023-02-27T02:34:01.893Z,2.45
2023-02-27T02:39:24.041Z,2.46
2023-02-27T02:44:40.908Z,2.45
2023-02-27T02:49:50.450Z,2.34
2023-02-27T02:55:16.725Z,2.33
2023-02-27T03:00:22.779Z,2.33
2023-02-27T03:05:32.094Z,2.26
2023-02-27T03:10:50.544Z,2.21
2023-02-27T03:16:11.575Z,2.18
2023-02-27T03:21:22.716Z,2.18
2023-02-27T03:26:33.580Z,2.08
2023-02-27T03:31:47.643Z,2.10
2023-02-27T03:37:11.574Z,2.06
2023-02-27T03:42:41.722Z,2.11
2023-02-27T03:47:51.963Z,2.13
2023-02-27T03:52:54.715Z,2.17
2023-02-27T03:57:56.729Z,2.16
2023-02-27T04:03:00.555Z,2.13
2023-02-27T04:08:37.362Z,2.15
2023-02-27T04:14:22.949Z,2.14
2023-02-27T04:19:42.936Z,2.08
2023-02-27T04:25:01.738Z,2.04
2023-02-27T04:30:14.068Z,2.00
2023-02-27T04:35:29.523Z,1.92
2023-02-27T04:40:49.109Z,1.87
2023-02-27T04:45:53.390Z,1.87
2023-02-27T04:51:03.259Z,1.88
2023-02-27T04:56:12.013Z,1.99
2023-02-27T05:06:35.422Z,1.96
2023-02-27T05:11:53.724Z,1.96
2023-02-27T05:17:40.032Z,1.85
2023-02-27T05:22:51.196Z,1.79
2023-02-27T05:28:02.768Z,1.78
2023-02-27T05:33:13.109Z,1.83
2023-02-27T05:38:28.663Z,1.83
2023-02-27T05:43:48.985Z,1.90
2023-02-27T05:48:57.212Z,1.97
2023-02-27T05:54:16.312Z,2.05
2023-02-27T05:59:26.555Z,2.04
2023-02-27T06:04:28.909Z,1.99
2023-02-27T06:09:31.869Z,1.97
2023-02-27T06:14:33.537Z,2.03
2023-02-27T06:19:35.450Z,2.06
2023-02-27T06:24:37.424Z,2.09
2023-02-27T06:29:39.078Z,2.08
2023-02-27T06:34:40.686Z,2.09
2023-02-27T06:39:42.387Z,2.20
2023-02-27T06:44:44.110Z,2.27
2023-02-27T06:49:45.783Z,2.38
2023-02-27T06:54:47.362Z,2.26
2023-02-27T06:59:49.161Z,2.42
2023-02-27T07:04:51.353Z,2.61
2023-02-27T07:09:53.121Z,2.83
2023-02-27T07:14:54.696Z,3.10
2023-02-27T07:19:56.358Z,3.25
2023-02-27T07:24:58.038Z,3.25
2023-02-27T07:30:00.316Z,3.36
2023-02-27T07:35:03.439Z,3.61
2023-02-27T07:40:07.702Z,3.59
2023-02-27T07:45:09.952Z,3.65
2023-02-27T07:50:14.067Z,3.85
2023-02-27T07:55:15.898Z,3.95
2023-02-27T08:00:18.176Z,4.06
2023-02-27T08:05:19.857Z,3.91
2023-02-27T08:10:21.519Z,3.93
2023-02-27T08:15:23.164Z,4.06
2023-02-27T08:20:25.341Z,4.24
2023-02-27T08:25:27.207Z,4.24
2023-02-27T08:30:29.088Z,3.98
2023-02-27T08:35:31.426Z,4.17
2023-02-27T08:40:33.271Z,4.46
2023-02-27T08:45:34.826Z,4.44
2023-02-27T08:50:36.478Z,4.19
2023-02-27T08:55:38.203Z,4.09
2023-02-27T09:00:39.828Z,4.05
2023-02-27T09:05:42.565Z,4.20
2023-02-27T09:10:44.305Z,4.45
2023-02-27T09:15:47.416Z,4.47
2023-02-27T09:20:51.207Z,4.68
2023-02-27T09:25:53.122Z,4.91
2023-02-27T09:30:54.784Z,5.37
2023-02-27T09:35:56.354Z,5.80
2023-02-27T09:40:59.593Z,6.09
2023-02-27T09:46:02.936Z,6.38
2023-02-27T09:51:05.171Z,6.52
2023-02-27T09:56:21.660Z,6.63
2023-02-27T10:01:57.161Z,6.43
2023-02-27T10:07:04.022Z,5.72
2023-02-27T10:12:14.740Z,6.56
2023-02-27T10:17:28.425Z,6.21
2023-02-27T10:22:43.247Z,5.61
2023-02-27T10:27:48.329Z,5.62
2023-02-27T10:32:54.378Z,5.52
2023-02-27T10:38:01.900Z,5.54
2023-02-27T10:43:06.439Z,5.22
2023-02-27T10:48:08.715Z,5.43
2023-02-27T10:53:22.478Z,5.94
2023-02-27T10:58:24.616Z,6.26
2023-02-27T11:03:32.475Z,5.89
2023-02-27T11:08:35.882Z,4.73
2023-02-27T11:13:47.074Z,3.91
2023-02-27T11:18:51.164Z,4.32
2023-02-27T11:24:02.153Z,4.77
2023-02-27T11:29:17.758Z,4.65
2023-02-27T11:34:48.173Z,4.75
2023-02-27T11:39:57.813Z,4.17
2023-02-27T11:45:07.632Z,3.66
2023-02-27T11:50:32.160Z,3.78
2023-02-27T11:55:34.974Z,4.36
2023-02-27T12:00:42.340Z,4.01
2023-02-27T12:05:48.636Z,3.28
2023-02-27T12:11:22.033Z,2.89
2023-02-27T12:16:43.151Z,2.68
2023-02-27T12:21:50.122Z,2.57
2023-02-27T12:27:01.244Z,2.73
2023-02-27T12:32:40.806Z,3.31
2023-02-27T12:37:42.577Z,4.24
2023-02-27T12:43:10.878Z,4.89
2023-02-27T12:48:23.903Z,3.98
2023-02-27T12:53:25.547Z,3.01
2023-02-27T12:58:42.813Z,3.12
2023-02-27T13:04:00.552Z,3.10
2023-02-27T13:09:15.867Z,2.90
2023-02-27T13:14:53.619Z,3.02
2023-02-27T13:20:01.807Z,3.59
2023-02-27T13:25:14.251Z,4.24
2023-02-27T13:30:22.944Z,4.84
2023-02-27T13:35:36.261Z,4.81
2023-02-27T13:40:40.913Z,4.89
2023-02-27T13:45:59.197Z,4.77
2023-02-27T13:51:01.773Z,4.59
2023-02-27T13:56:22.298Z,4.21
2023-02-27T14:01:28.563Z,3.46
2023-02-27T14:06:30.956Z,3.20
2023-02-27T14:11:39.705Z,3.66
2023-02-27T14:16:41.362Z,4.02
2023-02-27T14:22:10.747Z,4.27
2023-02-27T14:27:24.062Z,3.91
2023-02-27T14:32:33.757Z,3.77
2023-02-27T14:37:36.285Z,3.65
2023-02-27T14:42:56.949Z,3.36
2023-02-27T14:47:59.041Z,3.02
2023-02-27T14:53:01.655Z,2.75
2023-02-27T14:58:16.157Z,2.60
2023-02-27T15:03:32.435Z,2.38
2023-02-27T15:08:41.898Z,2.20
2023-02-27T15:13:45.032Z,2.05
2023-02-27T15:18:50.910Z,2.13
2023-02-27T15:24:01.351Z,2.11
2023-02-27T15:29:06.179Z,2.04
2023-02-27T15:34:13.976Z,1.92
2023-02-27T15:39:19.032Z,1.77
2023-02-27T15:44:26.062Z,1.66
2023-02-27T15:49:27.869Z,1.61
2023-02-27T15:54:34.390Z,1.63
2023-02-27T15:59:42.100Z,1.51
2023-02-27T16:04:46.059Z,1.34
2023-02-27T16:10:00.699Z,1.44
2023-02-27T16:15:21.040Z,1.94
2023-02-27T16:20:54.986Z,2.24
2023-02-27T16:26:09.005Z,2.32
2023-02-27T16:31:40.656Z,2.31
2023-02-27T16:36:52.931Z,2.33
2023-02-27T16:41:56.890Z,2.42
2023-02-27T16:47:12.107Z,2.53
2023-02-27T16:52:13.773Z,2.66
2023-02-27T16:57:17.590Z,2.61
2023-02-27T17:02:19.317Z,2.56
2023-02-27T17:07:20.950Z,2.55
2023-02-27T17:12:22.648Z,2.54
2023-02-27T17:17:24.288Z,2.49
2023-02-27T17:22:26.049Z,2.38
2023-02-27T17:27:27.810Z,1.71
2023-02-27T17:32:29.702Z,1.47
2023-02-27T17:37:31.415Z,1.99
2023-02-27T17:42:35.795Z,2.35
2023-02-27T17:47:37.528Z,2.49
2023-02-27T17:52:39.991Z,2.61
2023-02-27T17:57:41.816Z,2.43
2023-02-27T18:02:45.037Z,1.70
2023-02-27T18:07:46.713Z,1.25
2023-02-27T18:12:48.387Z,1.14
2023-02-27T18:17:50.118Z,1.70
2023-02-27T18:22:51.923Z,2.07
2023-02-27T18:27:56.923Z,1.72
2023-02-27T18:32:59.503Z,1.37
2023-02-27T18:38:02.343Z,1.30
2023-02-27T18:43:04.918Z,1.81
2023-02-27T18:48:06.892Z,1.61
2023-02-27T18:53:08.506Z,1.19
2023-02-27T18:58:10.451Z,0.99
2023-02-27T19:03:12.315Z,0.91
2023-02-27T19:08:14.112Z,0.88
2023-02-27T19:13:15.803Z,0.82
2023-02-27T19:18:17.598Z,0.77
2023-02-27T19:23:19.322Z,0.72
2023-02-27T19:28:21.289Z,0.71
2023-02-27T19:33:22.903Z,0.91
2023-02-27T19:38:24.716Z,1.54
2023-02-27T19:43:26.566Z,1.86
2023-02-27T19:48:28.292Z,1.99
2023-02-27T19:53:30.079Z,1.97
2023-02-27T19:58:33.559Z,1.97
2023-02-27T20:03:36.450Z,1.90
2023-02-27T20:08:38.195Z,1.84
2023-02-27T20:13:40.208Z,1.73
2023-02-27T20:18:42.929Z,1.65
2023-02-27T20:23:47.486Z,1.58
2023-02-27T20:28:52.168Z,1.50
2023-02-27T20:33:54.721Z,1.54
2023-02-27T20:38:58.447Z,1.64
2023-02-27T20:44:01.339Z,1.69
2023-02-27T20:49:04.498Z,1.76
2023-02-27T20:54:09.157Z,1.82
2023-02-27T20:59:14.970Z,1.85
2023-02-27T21:04:19.803Z,1.97
2023-02-27T21:09:22.281Z,2.06
2023-02-27T21:14:23.992Z,2.04
2023-02-27T21:19:26.017Z,1.97
2023-02-27T21:24:27.730Z,1.89
2023-02-27T21:29:29.884Z,1.84
2023-02-27T21:34:31.650Z,1.89
2023-02-27T21:39:33.469Z,1.87
2023-02-27T21:44:35.265Z,1.86
2023-02-27T21:49:38.414Z,1.91
2023-02-27T21:54:40.274Z,1.97
2023-02-27T21:59:42.587Z,1.99
2023-02-27T22:04:44.243Z,2.13
2023-02-27T22:09:49.859Z,2.21
2023-02-27T22:14:55.448Z,2.21
2023-02-27T22:19:57.927Z,2.17
2023-02-27T22:24:59.737Z,2.10
2023-02-27T22:30:01.549Z,2.05
2023-02-27T22:35:03.421Z,2.03
2023-02-27T22:40:05.895Z,1.76
2023-02-27T22:45:08.967Z,1.05
2023-02-27T22:50:14.254Z,0.93
2023-02-27T22:55:17.310Z,1.41
2023-02-27T23:00:19.226Z,1.68
2023-02-27T23:05:21.038Z,1.77
2023-02-27T23:10:22.636Z,1.87
2023-02-27T23:15:24.390Z,1.88
2023-02-27T23:20:26.065Z,1.88
2023-02-27T23:25:27.901Z,1.93
2023-02-27T23:30:30.163Z,1.72
2023-02-27T23:35:31.857Z,1.01
2023-02-27T23:40:35.978Z,0.83
2023-02-27T23:45:39.806Z,1.36
2023-02-27T23:50:43.897Z,1.67
2023-02-27T23:55:45.677Z,1.78
